Ben-my-chree — MXLG6 — position and weather

sailwx.info

Track history (hours):
 
Tides and Currents Weather Stations Pressure Air Temp Water Temp Dewpoint Dewpoint Depression Visibility Wind Speed Wind Dir Waves Ship Positions

Ben-my-chree

Operator: The Isle of Man Steam Packet Co Ltd

Last reported at 2019-Jun-16 22:22 UTC. Time now 2019-Jun-17 18:40 UTC.
Position N 54°02' W 002°55'.

Length 125 m; draft 5 m.

Type: Passenger vessel. MMSI: 234983000.

Date/timePositionNaut miles runAvg speedWind from/ knotsBaromVisibWave heightAir tempDewpointWater temp
2019-Jun-16 22:22N 54°02' W 002°55'616.4
2019-Jun-16 22:00N 53°58' W 003°03'1019.5
2019-Jun-16 21:30N 53°55' W 003°18'919.0
2019-Jun-16 21:00N 53°56' W 003°34'1 0.1
2019-Jun-16 14:22N 53°56' W 003°33'1119.3
2019-Jun-16 13:47N 53°56' W 003°14'620.0
2019-Jun-16 13:31N 53°57' W 003°05'7 2.8
2019-Jun-16 10:52N 54°02' W 002°56'717.5
2019-Jun-16 10:29N 53°57' W 003°04'918.1
2019-Jun-16 10:00N 53°56' W 003°19'917.8
2019-Jun-16 09:30N 53°56' W 003°34'1018.4
2019-Jun-16 08:59N 54°00' W 003°49'13 1.9
2019-Jun-16 02:09N 53°56' W 003°28'318.8
2019-Jun-16 02:00N 53°56' W 003°24'1019.5
2019-Jun-16 01:30N 53°57' W 003°07'9 2.3
2019-Jun-15 21:41N 54°02' W 002°56'417.9
2019-Jun-15 21:26N 53°59' W 003°01'919.9
2019-Jun-15 21:00N 53°55' W 003°14'1019.2
2019-Jun-15 20:31N 53°56' W 003°30'1019.1
2019-Jun-15 20:00N 53°60' W 003°45'10 1.8
2019-Jun-15 14:14N 53°56' W 003°29'1019.1
2019-Jun-15 13:42N 53°56' W 003°12'420.1
2019-Jun-15 13:30N 53°57' W 003°05'8 3.2
2019-Jun-15 11:07N 54°02' W 002°56'816.5
2019-Jun-15 10:39N 53°57' W 003°05'317.6
2019-Jun-15 10:31N 53°56' W 003°09'917.8
2019-Jun-15 10:01N 53°56' W 003°25'917.1
2019-Jun-15 09:31N 53°58' W 003°38'917.6
2019-Jun-15 09:00N 54°01' W 003°53'15 2.2
2019-Jun-15 02:14N 53°56' W 003°28'1019.2
2019-Jun-15 01:44N 53°56' W 003°12'520.4
2019-Jun-15 01:31N 53°57' W 003°05'7 2.1
2019-Jun-14 22:01N 54°02' W 002°55'0 0.8
2019-Jun-14 21:59N 54°02' W 002°55'715.2
2019-Jun-14 21:30N 53°57' W 003°05'918.1
2019-Jun-14 21:00N 53°55' W 003°20'918.3
2019-Jun-14 20:30N 53°57' W 003°35'1018.6
2019-Jun-14 19:58N 54°01' W 003°51'10 1.8
2019-Jun-14 14:30N 53°57' W 003°35'918.7
2019-Jun-14 14:00N 53°56' W 003°19'1019.5
2019-Jun-14 13:30N 53°58' W 003°03'6 2.3
2019-Jun-14 10:57N 54°02' W 002°56'716.0
2019-Jun-14 10:31N 53°57' W 003°05'917.0
2019-Jun-14 10:01N 53°55' W 003°19'917.7
2019-Jun-14 09:30N 53°57' W 003°34'918.1
2019-Jun-14 09:00N 53°60' W 003°48'12 1.8
2019-Jun-14 02:13N 53°56' W 003°28'1018.5
2019-Jun-14 01:42N 53°56' W 003°12'419.8
2019-Jun-14 01:31N 53°57' W 003°06'8 2.2
2019-Jun-13 21:57N 54°02' W 002°56'716.5
2019-Jun-13 21:30N 53°57' W 003°05'917.4
2019-Jun-13 21:00N 53°55' W 003°19'918.1
2019-Jun-13 20:30N 53°57' W 003°35'1018.5
2019-Jun-13 19:58N 54°00' W 003°51'13 2.4
2019-Jun-13 14:25N 53°56' W 003°29'1018.3
2019-Jun-13 13:51N 53°56' W 003°12'719.5
2019-Jun-13 13:29N 53°59' W 003°01'4 2.5
2019-Jun-13 11:49N 54°02' W 002°56'514.8
2019-Jun-13 11:30N 53°59' W 003°01'815.8
2019-Jun-13 11:01N 53°56' W 003°13'917.2
2019-Jun-13 10:31N 53°56' W 003°28'817.0
2019-Jun-13 10:01N 53°59' W 003°42'24 6.4
2019-Jun-13 06:13N 54°08' W 004°20'33 8.1
2019-Jun-13 02:06N 53°55' W 003°27'110.1
2019-Jun-13 02:00N 53°55' W 003°26'510.2
2019-Jun-13 01:30N 53°55' W 003°17'612.5
2019-Jun-13 01:00N 53°57' W 003°07'8 4.2
2019-Jun-12 23:03N 54°02' W 002°56'314.1
2019-Jun-12 22:51N 53°60' W 002°59'615.9
2019-Jun-12 22:30N 53°57' W 003°07'816.5
2019-Jun-12 22:00N 53°55' W 003°20'816.8
2019-Jun-12 21:30N 53°57' W 003°35'917.3
2019-Jun-12 21:00N 53°60' W 003°48'13 2.5
2019-Jun-12 15:58N 53°55' W 003°28'1016.9
2019-Jun-12 15:22N 53°56' W 003°11'717.8
2019-Jun-12 15:00N 53°59' W 003°01'5 1.4
2019-Jun-12 11:42N 54°02' W 002°56'314.5
2019-Jun-12 11:29N 53°60' W 002°59'815.7
2019-Jun-12 11:00N 53°56' W 003°10'816.9
2019-Jun-12 10:30N 53°55' W 003°24'816.8
2019-Jun-12 10:00N 53°58' W 003°38'816.8
2019-Jun-12 09:30N 54°01' W 003°52'14 2.2
2019-Jun-12 03:05N 53°56' W 003°29'117.1
2019-Jun-12 03:00N 53°56' W 003°27'1616.1
2019-Jun-12 02:00N 53°59' W 003°00'4 1.6
2019-Jun-11 23:40N 54°02' W 002°56'313.0
2019-Jun-11 23:27N 53°60' W 002°59'716.1
2019-Jun-11 23:01N 53°56' W 003°09'917.0
2019-Jun-11 22:30N 53°56' W 003°23'916.9
2019-Jun-11 22:00N 53°56' W 003°38'916.8
2019-Jun-11 21:29N 53°59' W 003°52'15 3.0
2019-Jun-11 16:36N 53°56' W 003°28'217.9
2019-Jun-11 16:30N 53°56' W 003°25'917.7
2019-Jun-11 16:00N 53°56' W 003°10'816.4
2019-Jun-11 15:30N 54°00' W 002°58'2 1.5
2019-Jun-11 14:05N 54°02' W 002°56'313.5
2019-Jun-11 13:52N 53°60' W 002°59'514.3
2019-Jun-11 13:30N 53°57' W 003°06'714.3
2019-Jun-11 13:01N 53°55' W 003°18'816.9
2019-Jun-11 12:31N 53°56' W 003°32'917.2
2019-Jun-11 12:00N 53°58' W 003°46'57 6.6
2019-Jun-11 03:20N 54°36' W 005°00'619.2
2019-Jun-11 03:01N 54°38' W 005°10'1019.8
2019-Jun-11 02:30N 54°42' W 005°26'918.6
2019-Jun-11 02:00N 54°42' W 005°42'815.0
2019-Jun-11 01:30N 54°38' W 005°53'2 3.0
2019-Jun-11 00:59N 54°37' W 005°55'0 0.0
2019-Jun-11 00:29N 54°37' W 005°55'1 1.8
2019-Jun-11 00:00N 54°37' W 005°54'612.8
2019-Jun-10 23:30N 54°42' W 005°46'816.8
2019-Jun-10 23:00N 54°43' W 005°32'917.2
2019-Jun-10 22:30N 54°40' W 005°18'918.3
2019-Jun-10 22:00N 54°36' W 005°03'47 9.2
2019-Jun-10 16:51N 54°03' W 004°04'617.5
2019-Jun-10 16:30N 54°01' W 003°55'1317.2
2019-Jun-10 15:45N 53°57' W 003°34'417.1
2019-Jun-10 15:30N 53°55' W 003°27'816.8
2019-Jun-10 15:00N 53°56' W 003°13'815.9
2019-Jun-10 14:30N 53°59' W 003°01'4 2.2
2019-Jun-10 12:27N 54°02' W 002°56'712.6
2019-Jun-10 11:54N 53°57' W 003°04'513.7
2019-Jun-10 11:31N 53°55' W 003°13'815.3
2019-Jun-10 11:00N 53°55' W 003°26'714.8
2019-Jun-10 10:30N 53°58' W 003°38'714.9
2019-Jun-10 10:00N 53°60' W 003°50'14 1.8
2019-Jun-10 02:26N 53°56' W 003°28'917.1
2019-Jun-10 01:55N 53°56' W 003°13'716.4
2019-Jun-10 01:31N 53°58' W 003°02'5 2.4
2019-Jun-09 23:15N 54°02' W 002°56'312.6
2019-Jun-09 23:00N 53°60' W 002°59'713.9
2019-Jun-09 22:30N 53°56' W 003°09'612.5
2019-Jun-09 22:00N 53°56' W 003°19'917.3
2019-Jun-09 21:30N 53°57' W 003°34'1017.6
2019-Jun-09 20:55N 54°00' W 003°50'16 2.6
2019-Jun-09 14:54N 53°56' W 003°25'717.5
2019-Jun-09 14:30N 53°56' W 003°14'816.1
2019-Jun-09 14:01N 53°59' W 003°01'5 2.6
2019-Jun-09 12:10N 54°02' W 002°55'210.3
2019-Jun-09 12:00N 54°01' W 002°57'918.8
2019-Jun-09 11:30N 53°56' W 003°10'1019.3
2019-Jun-09 11:00N 53°56' W 003°27'918.4
2019-Jun-09 10:30N 53°59' W 003°42'8 1.0
2019-Jun-09 02:11N 53°55' W 003°28'316.8
2019-Jun-09 02:00N 53°56' W 003°23'815.7
2019-Jun-09 01:31N 53°55' W 003°10'815.3
2019-Jun-09 01:00N 53°60' W 002°59'3 1.5
2019-Jun-08 22:43N 54°02' W 002°55'1 6.0
2019-Jun-08 22:30N 54°01' W 002°57'713.7
2019-Jun-08 22:00N 53°57' W 003°06'918.2
2019-Jun-08 21:30N 53°56' W 003°21'918.1
2019-Jun-08 21:00N 53°57' W 003°36'918.1
2019-Jun-08 20:30N 54°00' W 003°51'917.7
2019-Jun-08 20:00N 54°03' W 004°05'23 4.3
2019-Jun-08 14:34N 53°56' W 003°28'117.6
2019-Jun-08 14:30N 53°56' W 003°26'817.0
2019-Jun-08 14:00N 53°56' W 003°11'815.7
2019-Jun-08 13:30N 53°59' W 002°60'4 1.7
2019-Jun-08 11:14N 54°02' W 002°55'2 8.4
2019-Jun-08 11:00N 54°01' W 002°58'918.7
2019-Jun-08 10:31N 53°56' W 003°11'1019.0
2019-Jun-08 10:00N 53°55' W 003°27'918.4
2019-Jun-08 09:30N 53°59' W 003°41'1018.2
2019-Jun-08 08:58N 54°02' W 003°57'18 2.9
2019-Jun-08 02:46N 53°56' W 003°28'518.0
2019-Jun-08 02:30N 53°56' W 003°20'917.7
2019-Jun-08 02:01N 53°57' W 003°05'815.2
2019-Jun-08 01:31N 54°02' W 002°55'0 0.0
2019-Jun-07 22:27N 54°02' W 002°55'4 9.9
2019-Jun-07 22:00N 53°59' W 003°00'918.1
2019-Jun-07 21:30N 53°55' W 003°14'918.4
2019-Jun-07 21:01N 53°56' W 003°30'1118.3
2019-Jun-07 20:25N 53°60' W 003°47'11 1.9
2019-Jun-07 14:25N 53°56' W 003°29'918.6
2019-Jun-07 13:55N 53°56' W 003°13'717.4
2019-Jun-07 13:30N 53°58' W 003°02'5 2.3
2019-Jun-07 11:09N 54°02' W 002°55'1 7.0
2019-Jun-07 11:00N 54°02' W 002°57'1019.4
2019-Jun-07 10:30N 53°56' W 003°10'1019.0
2019-Jun-07 10:00N 53°55' W 003°26'918.6
2019-Jun-07 09:30N 53°58' W 003°41'918.3
2019-Jun-07 09:00N 54°01' W 003°56'918.0
2019-Jun-07 08:29N 54°05' W 004°11'918.1
2019-Jun-07 08:00N 54°08' W 004°24'2 0.9
2019-Jun-07 05:15N 54°09' W 004°28'0 0.2
2019-Jun-07 04:53N 54°09' W 004°28'1412.8
2019-Jun-07 03:49N 54°04' W 004°06'2315.7
2019-Jun-07 02:19N 53°56' W 003°29'619.2
2019-Jun-07 02:01N 53°56' W 003°19'918.2
2019-Jun-07 01:30N 53°58' W 003°04'  
Track history (hours):
 
Tides and Currents Weather Stations Pressure Air Temp Water Temp Dewpoint Dewpoint Depression Visibility Wind Speed Wind Dir Waves Ship Positions

Ben-my-chree

Operator: The Isle of Man Steam Packet Co Ltd

Last reported at 2019-Jun-16 22:22 UTC. Time now 2019-Jun-17 18:40 UTC.
Position N 54°02' W 002°55'.

Length 125 m; draft 5 m.

Type: Passenger vessel. MMSI: 234983000.

Date/timePositionNaut miles runAvg speedWind from/ knotsBaromVisibWave heightAir tempDewpointWater temp
2019-Jun-16 22:22N 54°02' W 002°55'616.4
2019-Jun-16 22:00N 53°58' W 003°03'1019.5
2019-Jun-16 21:30N 53°55' W 003°18'919.0
2019-Jun-16 21:00N 53°56' W 003°34'1 0.1
2019-Jun-16 14:22N 53°56' W 003°33'1119.3
2019-Jun-16 13:47N 53°56' W 003°14'620.0
2019-Jun-16 13:31N 53°57' W 003°05'7 2.8
2019-Jun-16 10:52N 54°02' W 002°56'717.5
2019-Jun-16 10:29N 53°57' W 003°04'918.1
2019-Jun-16 10:00N 53°56' W 003°19'917.8
2019-Jun-16 09:30N 53°56' W 003°34'1018.4
2019-Jun-16 08:59N 54°00' W 003°49'13 1.9
2019-Jun-16 02:09N 53°56' W 003°28'318.8
2019-Jun-16 02:00N 53°56' W 003°24'1019.5
2019-Jun-16 01:30N 53°57' W 003°07'9 2.3
2019-Jun-15 21:41N 54°02' W 002°56'417.9
2019-Jun-15 21:26N 53°59' W 003°01'919.9
2019-Jun-15 21:00N 53°55' W 003°14'1019.2
2019-Jun-15 20:31N 53°56' W 003°30'1019.1
2019-Jun-15 20:00N 53°60' W 003°45'10 1.8
2019-Jun-15 14:14N 53°56' W 003°29'1019.1
2019-Jun-15 13:42N 53°56' W 003°12'420.1
2019-Jun-15 13:30N 53°57' W 003°05'8 3.2
2019-Jun-15 11:07N 54°02' W 002°56'816.5
2019-Jun-15 10:39N 53°57' W 003°05'317.6
2019-Jun-15 10:31N 53°56' W 003°09'917.8
2019-Jun-15 10:01N 53°56' W 003°25'917.1
2019-Jun-15 09:31N 53°58' W 003°38'917.6
2019-Jun-15 09:00N 54°01' W 003°53'15 2.2
2019-Jun-15 02:14N 53°56' W 003°28'1019.2
2019-Jun-15 01:44N 53°56' W 003°12'520.4
2019-Jun-15 01:31N 53°57' W 003°05'7 2.1
2019-Jun-14 22:01N 54°02' W 002°55'0 0.8
2019-Jun-14 21:59N 54°02' W 002°55'715.2
2019-Jun-14 21:30N 53°57' W 003°05'918.1
2019-Jun-14 21:00N 53°55' W 003°20'918.3
2019-Jun-14 20:30N 53°57' W 003°35'1018.6
2019-Jun-14 19:58N 54°01' W 003°51'10 1.8
2019-Jun-14 14:30N 53°57' W 003°35'918.7
2019-Jun-14 14:00N 53°56' W 003°19'1019.5
2019-Jun-14 13:30N 53°58' W 003°03'6 2.3
2019-Jun-14 10:57N 54°02' W 002°56'716.0
2019-Jun-14 10:31N 53°57' W 003°05'917.0
2019-Jun-14 10:01N 53°55' W 003°19'917.7
2019-Jun-14 09:30N 53°57' W 003°34'918.1
2019-Jun-14 09:00N 53°60' W 003°48'12 1.8
2019-Jun-14 02:13N 53°56' W 003°28'1018.5
2019-Jun-14 01:42N 53°56' W 003°12'419.8
2019-Jun-14 01:31N 53°57' W 003°06'8 2.2
2019-Jun-13 21:57N 54°02' W 002°56'716.5
2019-Jun-13 21:30N 53°57' W 003°05'917.4
2019-Jun-13 21:00N 53°55' W 003°19'918.1
2019-Jun-13 20:30N 53°57' W 003°35'1018.5
2019-Jun-13 19:58N 54°00' W 003°51'13 2.4
2019-Jun-13 14:25N 53°56' W 003°29'1018.3
2019-Jun-13 13:51N 53°56' W 003°12'719.5
2019-Jun-13 13:29N 53°59' W 003°01'4 2.5
2019-Jun-13 11:49N 54°02' W 002°56'514.8
2019-Jun-13 11:30N 53°59' W 003°01'815.8
2019-Jun-13 11:01N 53°56' W 003°13'917.2
2019-Jun-13 10:31N 53°56' W 003°28'817.0
2019-Jun-13 10:01N 53°59' W 003°42'24 6.4
2019-Jun-13 06:13N 54°08' W 004°20'33 8.1
2019-Jun-13 02:06N 53°55' W 003°27'110.1
2019-Jun-13 02:00N 53°55' W 003°26'510.2
2019-Jun-13 01:30N 53°55' W 003°17'612.5
2019-Jun-13 01:00N 53°57' W 003°07'8 4.2
2019-Jun-12 23:03N 54°02' W 002°56'314.1
2019-Jun-12 22:51N 53°60' W 002°59'615.9
2019-Jun-12 22:30N 53°57' W 003°07'816.5
2019-Jun-12 22:00N 53°55' W 003°20'816.8
2019-Jun-12 21:30N 53°57' W 003°35'917.3
2019-Jun-12 21:00N 53°60' W 003°48'13 2.5
2019-Jun-12 15:58N 53°55' W 003°28'1016.9
2019-Jun-12 15:22N 53°56' W 003°11'717.8
2019-Jun-12 15:00N 53°59' W 003°01'5 1.4
2019-Jun-12 11:42N 54°02' W 002°56'314.5
2019-Jun-12 11:29N 53°60' W 002°59'815.7
2019-Jun-12 11:00N 53°56' W 003°10'816.9
2019-Jun-12 10:30N 53°55' W 003°24'816.8
2019-Jun-12 10:00N 53°58' W 003°38'816.8
2019-Jun-12 09:30N 54°01' W 003°52'14 2.2
2019-Jun-12 03:05N 53°56' W 003°29'117.1
2019-Jun-12 03:00N 53°56' W 003°27'1616.1
2019-Jun-12 02:00N 53°59' W 003°00'4 1.6
2019-Jun-11 23:40N 54°02' W 002°56'313.0
2019-Jun-11 23:27N 53°60' W 002°59'716.1
2019-Jun-11 23:01N 53°56' W 003°09'917.0
2019-Jun-11 22:30N 53°56' W 003°23'916.9
2019-Jun-11 22:00N 53°56' W 003°38'916.8
2019-Jun-11 21:29N 53°59' W 003°52'15 3.0
2019-Jun-11 16:36N 53°56' W 003°28'217.9
2019-Jun-11 16:30N 53°56' W 003°25'917.7
2019-Jun-11 16:00N 53°56' W 003°10'816.4
2019-Jun-11 15:30N 54°00' W 002°58'2 1.5
2019-Jun-11 14:05N 54°02' W 002°56'313.5
2019-Jun-11 13:52N 53°60' W 002°59'514.3
2019-Jun-11 13:30N 53°57' W 003°06'714.3
2019-Jun-11 13:01N 53°55' W 003°18'816.9
2019-Jun-11 12:31N 53°56' W 003°32'917.2
2019-Jun-11 12:00N 53°58' W 003°46'57 6.6
2019-Jun-11 03:20N 54°36' W 005°00'619.2
2019-Jun-11 03:01N 54°38' W 005°10'1019.8
2019-Jun-11 02:30N 54°42' W 005°26'918.6
2019-Jun-11 02:00N 54°42' W 005°42'815.0
2019-Jun-11 01:30N 54°38' W 005°53'2 3.0
2019-Jun-11 00:59N 54°37' W 005°55'0 0.0
2019-Jun-11 00:29N 54°37' W 005°55'1 1.8
2019-Jun-11 00:00N 54°37' W 005°54'612.8
2019-Jun-10 23:30N 54°42' W 005°46'816.8
2019-Jun-10 23:00N 54°43' W 005°32'917.2
2019-Jun-10 22:30N 54°40' W 005°18'918.3
2019-Jun-10 22:00N 54°36' W 005°03'47 9.2
2019-Jun-10 16:51N 54°03' W 004°04'617.5
2019-Jun-10 16:30N 54°01' W 003°55'1317.2
2019-Jun-10 15:45N 53°57' W 003°34'417.1
2019-Jun-10 15:30N 53°55' W 003°27'816.8
2019-Jun-10 15:00N 53°56' W 003°13'815.9
2019-Jun-10 14:30N 53°59' W 003°01'4 2.2
2019-Jun-10 12:27N 54°02' W 002°56'712.6
2019-Jun-10 11:54N 53°57' W 003°04'513.7
2019-Jun-10 11:31N 53°55' W 003°13'815.3
2019-Jun-10 11:00N 53°55' W 003°26'714.8
2019-Jun-10 10:30N 53°58' W 003°38'714.9
2019-Jun-10 10:00N 53°60' W 003°50'14 1.8
2019-Jun-10 02:26N 53°56' W 003°28'917.1
2019-Jun-10 01:55N 53°56' W 003°13'716.4
2019-Jun-10 01:31N 53°58' W 003°02'5 2.4
2019-Jun-09 23:15N 54°02' W 002°56'312.6
2019-Jun-09 23:00N 53°60' W 002°59'713.9
2019-Jun-09 22:30N 53°56' W 003°09'612.5
2019-Jun-09 22:00N 53°56' W 003°19'917.3
2019-Jun-09 21:30N 53°57' W 003°34'1017.6
2019-Jun-09 20:55N 54°00' W 003°50'16 2.6
2019-Jun-09 14:54N 53°56' W 003°25'717.5
2019-Jun-09 14:30N 53°56' W 003°14'816.1
2019-Jun-09 14:01N 53°59' W 003°01'5 2.6
2019-Jun-09 12:10N 54°02' W 002°55'210.3
2019-Jun-09 12:00N 54°01' W 002°57'918.8
2019-Jun-09 11:30N 53°56' W 003°10'1019.3
2019-Jun-09 11:00N 53°56' W 003°27'918.4
2019-Jun-09 10:30N 53°59' W 003°42'8 1.0
2019-Jun-09 02:11N 53°55' W 003°28'316.8
2019-Jun-09 02:00N 53°56' W 003°23'815.7
2019-Jun-09 01:31N 53°55' W 003°10'815.3
2019-Jun-09 01:00N 53°60' W 002°59'3 1.5
2019-Jun-08 22:43N 54°02' W 002°55'1 6.0
2019-Jun-08 22:30N 54°01' W 002°57'713.7
2019-Jun-08 22:00N 53°57' W 003°06'918.2
2019-Jun-08 21:30N 53°56' W 003°21'918.1
2019-Jun-08 21:00N 53°57' W 003°36'918.1
2019-Jun-08 20:30N 54°00' W 003°51'917.7
2019-Jun-08 20:00N 54°03' W 004°05'23 4.3
2019-Jun-08 14:34N 53°56' W 003°28'117.6
2019-Jun-08 14:30N 53°56' W 003°26'817.0
2019-Jun-08 14:00N 53°56' W 003°11'815.7
2019-Jun-08 13:30N 53°59' W 002°60'4 1.7
2019-Jun-08 11:14N 54°02' W 002°55'2 8.4
2019-Jun-08 11:00N 54°01' W 002°58'918.7
2019-Jun-08 10:31N 53°56' W 003°11'1019.0
2019-Jun-08 10:00N 53°55' W 003°27'918.4
2019-Jun-08 09:30N 53°59' W 003°41'1018.2
2019-Jun-08 08:58N 54°02' W 003°57'18 2.9
2019-Jun-08 02:46N 53°56' W 003°28'518.0
2019-Jun-08 02:30N 53°56' W 003°20'917.7
2019-Jun-08 02:01N 53°57' W 003°05'815.2
2019-Jun-08 01:31N 54°02' W 002°55'0 0.0
2019-Jun-07 22:27N 54°02' W 002°55'4 9.9
2019-Jun-07 22:00N 53°59' W 003°00'918.1
2019-Jun-07 21:30N 53°55' W 003°14'918.4
2019-Jun-07 21:01N 53°56' W 003°30'1118.3
2019-Jun-07 20:25N 53°60' W 003°47'11 1.9
2019-Jun-07 14:25N 53°56' W 003°29'918.6
2019-Jun-07 13:55N 53°56' W 003°13'717.4
2019-Jun-07 13:30N 53°58' W 003°02'5 2.3
2019-Jun-07 11:09N 54°02' W 002°55'1 7.0
2019-Jun-07 11:00N 54°02' W 002°57'1019.4
2019-Jun-07 10:30N 53°56' W 003°10'1019.0
2019-Jun-07 10:00N 53°55' W 003°26'918.6
2019-Jun-07 09:30N 53°58' W 003°41'918.3
2019-Jun-07 09:00N 54°01' W 003°56'918.0
2019-Jun-07 08:29N 54°05' W 004°11'918.1
2019-Jun-07 08:00N 54°08' W 004°24'2 0.9
2019-Jun-07 05:15N 54°09' W 004°28'0 0.2
2019-Jun-07 04:53N 54°09' W 004°28'1412.8
2019-Jun-07 03:49N 54°04' W 004°06'2315.7
2019-Jun-07 02:19N 53°56' W 003°29'619.2
2019-Jun-07 02:01N 53°56' W 003°19'918.2
2019-Jun-07 01:30N 53°58' W 003°04'  

Dump ship's entire track history